createdAt,value
2023-02-06T00:01:45.476Z,4.87
2023-02-06T00:04:16.163Z,4.40
2023-02-06T00:06:43.946Z,4.30
2023-02-06T00:09:11.043Z,4.70
2023-02-06T00:11:38.035Z,5.60
2023-02-06T00:14:05.912Z,4.70
2023-02-06T00:16:34.075Z,3.83
2023-02-06T00:19:01.402Z,5.00
2023-02-06T00:21:29.835Z,4.60
2023-02-06T00:23:58.804Z,4.57
2023-02-06T00:26:26.100Z,3.80
2023-02-06T00:28:53.214Z,5.57
2023-02-06T00:31:20.701Z,3.93
2023-02-06T00:33:47.915Z,5.13
2023-02-06T00:36:15.494Z,5.13
2023-02-06T00:38:42.528Z,4.30
2023-02-06T00:41:09.424Z,4.83
2023-02-06T00:43:36.735Z,5.37
2023-02-06T00:46:03.791Z,5.07
2023-02-06T00:48:30.820Z,4.17
2023-02-06T00:50:57.639Z,4.40
2023-02-06T00:53:24.762Z,5.27
2023-02-06T00:55:51.920Z,4.63
2023-02-06T00:58:19.144Z,5.33
2023-02-06T01:00:46.165Z,4.60
2023-02-06T01:03:13.113Z,4.43
2023-02-06T01:05:39.951Z,4.00
2023-02-06T01:08:06.837Z,4.30
2023-02-06T01:10:33.764Z,3.63
2023-02-06T01:13:00.973Z,5.73
2023-02-06T01:15:27.971Z,4.63
2023-02-06T01:17:54.760Z,4.57
2023-02-06T01:20:23.082Z,5.10
2023-02-06T01:22:49.987Z,4.87
2023-02-06T01:25:17.419Z,4.10
2023-02-06T01:27:44.417Z,4.00
2023-02-06T01:30:11.809Z,4.20
2023-02-06T01:32:40.490Z,5.87
2023-02-06T01:35:08.867Z,4.57
2023-02-06T01:37:36.748Z,5.20
2023-02-06T01:40:05.128Z,5.03
2023-02-06T01:42:35.820Z,4.50
2023-02-06T01:45:21.280Z,4.50
2023-02-06T01:47:49.423Z,4.10
2023-02-06T01:50:16.189Z,5.23
2023-02-06T01:52:43.220Z,4.67
2023-02-06T01:55:10.080Z,5.77
2023-02-06T01:57:37.064Z,4.57
2023-02-06T02:00:27.991Z,3.90
2023-02-06T02:02:54.772Z,7.53
2023-02-06T02:05:22.350Z,4.27
2023-02-06T02:08:01.584Z,5.00
2023-02-06T02:10:32.492Z,4.87
2023-02-06T02:12:59.578Z,5.23
2023-02-06T02:15:42.829Z,3.93
2023-02-06T02:18:09.634Z,5.20
2023-02-06T02:20:54.625Z,5.47
2023-02-06T02:23:33.810Z,4.57
2023-02-06T02:26:54.972Z,5.10
2023-02-06T02:29:52.925Z,4.40
2023-02-06T02:32:34.987Z,6.13
2023-02-06T02:35:19.217Z,4.13
2023-02-06T02:38:02.001Z,4.40
2023-02-06T02:41:05.911Z,4.13
2023-02-06T02:43:44.250Z,5.00
2023-02-06T02:46:26.369Z,5.37
2023-02-06T02:48:55.552Z,4.63
2023-02-06T02:51:23.287Z,4.77
2023-02-06T02:53:50.969Z,4.50
2023-02-06T02:56:20.868Z,5.30
2023-02-06T02:58:53.133Z,4.33
2023-02-06T03:01:24.011Z,5.30
2023-02-06T03:03:53.579Z,3.97
2023-02-06T03:06:23.866Z,4.20
2023-02-06T03:09:01.177Z,4.13
2023-02-06T03:11:28.515Z,4.93
2023-02-06T03:14:03.854Z,5.13
2023-02-06T03:16:38.723Z,5.03
2023-02-06T03:19:14.459Z,5.07
2023-02-06T03:21:42.006Z,4.60
2023-02-06T03:24:13.057Z,4.00
2023-02-06T03:26:40.367Z,4.70
2023-02-06T03:29:11.324Z,4.63
2023-02-06T03:31:47.774Z,4.40
2023-02-06T03:34:22.145Z,4.77
2023-02-06T03:36:50.144Z,5.13
2023-02-06T03:39:16.966Z,5.17
2023-02-06T03:41:44.721Z,5.00
2023-02-06T03:44:16.436Z,4.03
2023-02-06T03:46:44.427Z,4.97
2023-02-06T03:49:13.214Z,4.70
2023-02-06T03:51:47.847Z,4.37
2023-02-06T03:54:17.839Z,3.87
2023-02-06T03:57:01.593Z,4.73
2023-02-06T03:59:28.782Z,4.93
2023-02-06T04:01:58.500Z,5.47
2023-02-06T04:04:29.746Z,5.17
2023-02-06T04:07:03.206Z,6.80
2023-02-06T04:09:30.517Z,4.63
2023-02-06T04:11:57.225Z,4.97
2023-02-06T04:14:24.404Z,4.33
2023-02-06T04:16:51.631Z,4.53
2023-02-06T04:19:18.680Z,4.37
2023-02-06T04:21:45.942Z,5.00
2023-02-06T04:24:13.382Z,4.57
2023-02-06T04:26:40.764Z,5.10
2023-02-06T04:29:08.277Z,4.57
2023-02-06T04:31:35.254Z,4.37
2023-02-06T04:34:02.231Z,4.60
2023-02-06T04:36:28.991Z,4.37
2023-02-06T04:38:56.301Z,5.23
2023-02-06T04:41:23.130Z,3.90
2023-02-06T04:43:50.078Z,4.53
2023-02-06T04:46:16.815Z,4.47
2023-02-06T04:48:43.661Z,4.97
2023-02-06T04:51:10.563Z,4.67
2023-02-06T04:53:37.458Z,4.40
2023-02-06T04:56:10.125Z,4.87
2023-02-06T04:58:37.538Z,5.67
2023-02-06T05:01:04.755Z,5.03
2023-02-06T05:03:31.946Z,5.60
2023-02-06T05:06:04.718Z,6.07
2023-02-06T05:08:31.597Z,5.63
2023-02-06T05:10:58.407Z,5.60
2023-02-06T05:13:25.811Z,5.73
2023-02-06T05:15:53.073Z,6.70
2023-02-06T05:18:19.900Z,6.40
2023-02-06T05:20:46.826Z,6.83
2023-02-06T05:23:13.703Z,5.90
2023-02-06T05:25:42.275Z,6.83
2023-02-06T05:28:10.118Z,6.63
2023-02-06T05:30:37.321Z,5.87
2023-02-06T05:33:04.392Z,5.53
2023-02-06T05:35:31.967Z,6.23
2023-02-06T05:37:59.136Z,5.67
2023-02-06T05:40:26.165Z,5.00
2023-02-06T05:42:52.982Z,5.53
2023-02-06T05:45:19.775Z,6.10
2023-02-06T05:47:46.741Z,6.50
2023-02-06T05:50:13.666Z,5.57
2023-02-06T05:52:40.635Z,7.30
2023-02-06T05:55:08.020Z,6.63
2023-02-06T05:57:35.643Z,7.63
2023-02-06T06:00:04.219Z,6.60
2023-02-06T06:02:38.326Z,6.60
2023-02-06T06:05:05.506Z,7.80
2023-02-06T06:07:32.527Z,6.67
2023-02-06T06:09:59.319Z,6.97
2023-02-06T06:12:26.242Z,5.03
2023-02-06T06:14:53.694Z,5.43
2023-02-06T06:17:21.685Z,5.40
2023-02-06T06:19:48.942Z,6.00
2023-02-06T06:22:15.781Z,6.30
2023-02-06T06:24:42.502Z,5.73
2023-02-06T06:27:10.725Z,7.03
2023-02-06T06:29:37.821Z,6.50
2023-02-06T06:32:04.947Z,6.30
2023-02-06T06:34:31.932Z,6.73
2023-02-06T06:36:58.926Z,5.93
2023-02-06T06:39:25.693Z,6.63
2023-02-06T06:41:52.496Z,7.03
2023-02-06T06:44:19.272Z,7.30
2023-02-06T06:46:46.125Z,7.23
2023-02-06T06:49:12.897Z,6.60
2023-02-06T06:51:39.581Z,6.23
2023-02-06T06:54:07.125Z,8.97
2023-02-06T06:56:34.876Z,8.70
2023-02-06T06:59:01.650Z,7.67
2023-02-06T07:01:28.505Z,7.37
2023-02-06T07:03:55.527Z,7.60
2023-02-06T07:06:22.303Z,7.07
2023-02-06T07:08:49.656Z,7.40
2023-02-06T07:11:17.032Z,6.87
2023-02-06T07:13:44.524Z,7.73
2023-02-06T07:16:12.167Z,7.30
2023-02-06T07:18:39.927Z,8.13
2023-02-06T07:21:08.959Z,8.33
2023-02-06T07:23:38.792Z,7.70
2023-02-06T07:26:05.899Z,7.63
2023-02-06T07:28:33.526Z,9.00
2023-02-06T07:31:05.166Z,7.63
2023-02-06T07:33:32.857Z,8.53
2023-02-06T07:36:01.679Z,8.47
2023-02-06T07:38:31.695Z,8.63
2023-02-06T07:41:02.802Z,8.83
2023-02-06T07:43:31.045Z,7.37
2023-02-06T07:46:07.073Z,8.27
2023-02-06T07:48:33.910Z,8.83
2023-02-06T07:51:05.741Z,7.57
2023-02-06T07:53:32.864Z,8.30
2023-02-06T07:55:59.704Z,7.70
2023-02-06T07:58:26.743Z,7.80
2023-02-06T08:00:56.214Z,7.23
2023-02-06T08:03:23.745Z,8.07
2023-02-06T08:05:50.406Z,6.63
2023-02-06T08:08:17.105Z,6.83
2023-02-06T08:10:43.809Z,7.87
2023-02-06T08:13:10.963Z,6.33
2023-02-06T08:15:40.890Z,7.50
2023-02-06T08:18:08.151Z,7.27
2023-02-06T08:20:35.082Z,7.57
2023-02-06T08:23:01.858Z,7.50
2023-02-06T08:25:28.584Z,6.63
2023-02-06T08:27:55.969Z,6.83
2023-02-06T08:30:23.610Z,6.40
2023-02-06T08:32:50.518Z,6.20
2023-02-06T08:35:17.418Z,5.27
2023-02-06T08:37:44.196Z,5.83
2023-02-06T08:40:12.049Z,6.40
2023-02-06T08:42:38.850Z,6.77
2023-02-06T08:45:06.296Z,5.73
2023-02-06T08:47:33.352Z,7.07
2023-02-06T08:50:02.890Z,6.70
2023-02-06T08:52:30.360Z,11.23
2023-02-06T08:54:58.175Z,6.63
2023-02-06T08:57:25.089Z,7.20
2023-02-06T09:00:01.276Z,6.23
2023-02-06T09:02:40.877Z,6.70
2023-02-06T09:05:30.369Z,6.73
2023-02-06T09:08:01.494Z,6.77
2023-02-06T09:10:36.716Z,7.10
2023-02-06T09:13:07.373Z,7.03
2023-02-06T09:15:34.385Z,7.50
2023-02-06T09:18:01.443Z,7.17
2023-02-06T09:20:28.304Z,7.07
2023-02-06T09:22:55.176Z,7.30
2023-02-06T09:25:22.471Z,7.07
2023-02-06T09:27:49.610Z,8.10
2023-02-06T09:30:16.416Z,7.93
2023-02-06T09:32:43.430Z,7.77
2023-02-06T09:35:11.085Z,7.20
2023-02-06T09:37:38.039Z,7.67
2023-02-06T09:40:05.398Z,8.57
2023-02-06T09:42:37.864Z,7.87
2023-02-06T09:45:09.288Z,8.10
2023-02-06T09:47:39.704Z,8.13
2023-02-06T09:50:54.404Z,7.33
2023-02-06T09:53:26.218Z,7.57
2023-02-06T09:56:17.731Z,7.23
2023-02-06T09:58:54.522Z,7.80
2023-02-06T10:01:33.101Z,6.57
2023-02-06T10:04:18.413Z,7.07
2023-02-06T10:07:04.294Z,7.60
2023-02-06T10:10:00.295Z,7.07
2023-02-06T10:12:35.129Z,6.80
2023-02-06T10:15:07.081Z,6.50
2023-02-06T10:17:37.604Z,7.43
2023-02-06T10:20:07.478Z,7.00
2023-02-06T10:22:44.149Z,6.00
2023-02-06T10:25:57.465Z,6.00
2023-02-06T10:28:30.303Z,6.30
2023-02-06T10:31:39.080Z,6.27
2023-02-06T10:34:29.570Z,6.80
2023-02-06T10:36:56.458Z,6.20
2023-02-06T10:39:41.921Z,5.80
2023-02-06T10:42:36.207Z,6.00
2023-02-06T10:45:19.312Z,5.60
2023-02-06T10:47:55.564Z,6.17
2023-02-06T10:50:36.518Z,5.33
2023-02-06T10:53:19.282Z,5.30
2023-02-06T10:55:52.085Z,6.40
2023-02-06T10:58:40.484Z,6.13
2023-02-06T11:01:24.703Z,6.10
2023-02-06T11:03:58.624Z,5.60
2023-02-06T11:06:27.358Z,6.53
2023-02-06T11:08:54.208Z,5.97
2023-02-06T11:11:25.572Z,5.90
2023-02-06T11:14:06.713Z,5.63
2023-02-06T11:16:37.609Z,5.17
2023-02-06T11:19:20.362Z,5.40
2023-02-06T11:21:51.475Z,5.27
2023-02-06T11:24:21.266Z,5.13
2023-02-06T11:26:57.637Z,5.63
2023-02-06T11:29:37.359Z,4.97
2023-02-06T11:32:09.286Z,5.07
2023-02-06T11:34:51.226Z,4.93
2023-02-06T11:37:38.098Z,4.23
2023-02-06T11:40:17.416Z,4.57
2023-02-06T11:42:45.585Z,4.27
2023-02-06T11:45:39.631Z,4.67
2023-02-06T11:48:07.891Z,4.00
2023-02-06T11:50:37.053Z,3.90
2023-02-06T11:53:15.585Z,5.83
2023-02-06T11:55:43.385Z,4.53
2023-02-06T11:58:13.224Z,4.17
2023-02-06T12:00:42.077Z,4.37
2023-02-06T12:03:27.292Z,3.33
2023-02-06T12:05:57.875Z,4.10
2023-02-06T12:08:34.598Z,5.43
2023-02-06T12:11:03.736Z,5.13
2023-02-06T12:13:34.163Z,4.27
2023-02-06T12:16:02.768Z,4.97
2023-02-06T12:18:37.704Z,6.77
2023-02-06T12:21:14.990Z,4.70
2023-02-06T12:23:53.478Z,4.70
2023-02-06T12:26:23.302Z,5.13
2023-02-06T12:28:50.043Z,4.50
2023-02-06T12:31:21.899Z,4.00
2023-02-06T12:33:55.304Z,4.30
2023-02-06T12:36:34.852Z,4.43
2023-02-06T12:39:03.598Z,3.90
2023-02-06T12:41:52.294Z,3.80
2023-02-06T12:44:28.273Z,4.17
2023-02-06T12:47:06.176Z,3.23
2023-02-06T12:49:49.959Z,3.27
2023-02-06T12:52:31.165Z,3.60
2023-02-06T12:55:04.958Z,3.73
2023-02-06T12:57:32.182Z,4.13
2023-02-06T13:00:16.183Z,5.23
2023-02-06T13:03:20.944Z,4.00
2023-02-06T13:05:50.687Z,3.17
2023-02-06T13:08:49.788Z,3.70
2023-02-06T13:11:37.492Z,4.00
2023-02-06T13:14:23.780Z,3.60
2023-02-06T13:16:59.711Z,3.53
2023-02-06T13:19:37.496Z,5.90
2023-02-06T13:22:10.570Z,4.00
2023-02-06T13:24:38.517Z,3.50
2023-02-06T13:27:08.241Z,4.07
2023-02-06T13:29:37.622Z,3.43
2023-02-06T13:32:10.801Z,4.23
2023-02-06T13:34:41.387Z,4.23
2023-02-06T13:37:34.101Z,3.83
2023-02-06T13:40:22.927Z,4.83
2023-02-06T13:43:13.988Z,5.20
2023-02-06T13:45:44.943Z,4.97
2023-02-06T13:48:33.983Z,5.90
2023-02-06T13:51:31.084Z,6.70
2023-02-06T13:54:13.526Z,4.90
2023-02-06T13:56:44.954Z,4.87
2023-02-06T13:59:37.663Z,5.10
2023-02-06T14:02:30.131Z,5.00
2023-02-06T14:04:58.681Z,5.40
2023-02-06T14:08:05.787Z,5.07
2023-02-06T14:10:53.850Z,4.60
2023-02-06T14:13:31.168Z,5.00
2023-02-06T14:16:30.699Z,6.03
2023-02-06T14:18:57.421Z,4.90
2023-02-06T14:21:32.858Z,6.30
2023-02-06T14:23:59.533Z,5.20
2023-02-06T14:27:03.516Z,4.83
2023-02-06T14:29:39.411Z,6.67
2023-02-06T14:32:19.919Z,5.27
2023-02-06T14:34:49.724Z,5.90
2023-02-06T14:37:43.252Z,5.63
2023-02-06T14:40:22.865Z,5.70
2023-02-06T14:42:58.248Z,4.83
2023-02-06T14:45:40.932Z,4.77
2023-02-06T14:48:21.365Z,5.27
2023-02-06T14:50:51.285Z,4.63
2023-02-06T14:53:23.885Z,3.90
2023-02-06T14:55:51.717Z,3.57
2023-02-06T14:58:27.571Z,4.33
2023-02-06T15:01:11.711Z,3.43
2023-02-06T15:03:40.279Z,3.70
2023-02-06T15:06:11.007Z,3.50
2023-02-06T15:08:39.508Z,3.53
2023-02-06T15:11:19.006Z,3.03
2023-02-06T15:13:50.487Z,3.90
2023-02-06T15:16:18.033Z,3.03
2023-02-06T15:18:44.903Z,3.33
2023-02-06T15:21:15.895Z,2.80
2023-02-06T15:24:07.838Z,3.13
2023-02-06T15:26:49.890Z,2.60
2023-02-06T15:29:19.533Z,3.33
2023-02-06T15:31:51.338Z,3.43
2023-02-06T15:34:20.301Z,3.00
2023-02-06T15:36:47.443Z,2.70
2023-02-06T15:39:15.291Z,2.60
2023-02-06T15:41:44.894Z,2.40
2023-02-06T15:44:34.510Z,2.47
2023-02-06T15:47:04.252Z,2.97
2023-02-06T15:49:41.731Z,2.93
2023-02-06T15:52:10.090Z,3.13
2023-02-06T15:54:40.529Z,2.90
2023-02-06T15:57:22.101Z,2.80
2023-02-06T15:59:49.353Z,2.53
2023-02-06T16:02:21.988Z,2.57
2023-02-06T16:04:51.842Z,2.07
2023-02-06T16:07:21.400Z,2.30
2023-02-06T16:09:59.523Z,2.00
2023-02-06T16:12:26.500Z,2.60
2023-02-06T16:15:02.162Z,2.60
2023-02-06T16:17:35.663Z,2.73
2023-02-06T16:20:26.905Z,2.80
2023-02-06T16:22:57.268Z,2.47
2023-02-06T16:25:30.028Z,2.17
2023-02-06T16:27:57.057Z,2.90
2023-02-06T16:30:31.134Z,2.50
2023-02-06T16:33:19.836Z,2.50
2023-02-06T16:35:46.592Z,2.83
2023-02-06T16:38:13.385Z,3.00
2023-02-06T16:40:40.333Z,3.07
2023-02-06T16:43:11.413Z,2.60
2023-02-06T16:45:38.329Z,2.83
2023-02-06T16:48:11.677Z,3.37
2023-02-06T16:50:42.055Z,2.70
2023-02-06T16:53:25.689Z,2.90
2023-02-06T16:55:52.952Z,3.07
2023-02-06T16:58:23.089Z,2.93
2023-02-06T17:00:51.329Z,3.17
2023-02-06T17:03:18.150Z,2.97
2023-02-06T17:05:47.061Z,3.30
2023-02-06T17:08:19.461Z,3.70
2023-02-06T17:10:47.118Z,3.33
2023-02-06T17:13:21.905Z,3.60
2023-02-06T17:15:49.317Z,3.60
2023-02-06T17:18:18.079Z,3.20
2023-02-06T17:20:48.715Z,4.40
2023-02-06T17:23:16.097Z,3.40
2023-02-06T17:25:44.139Z,4.07
2023-02-06T17:28:16.975Z,3.77
2023-02-06T17:30:44.803Z,5.17
2023-02-06T17:33:11.658Z,3.00
2023-02-06T17:35:38.940Z,3.20
2023-02-06T17:38:07.486Z,3.60
2023-02-06T17:40:35.838Z,3.47
2023-02-06T17:43:04.777Z,2.90
2023-02-06T17:45:32.856Z,3.33
2023-02-06T17:48:00.338Z,3.17
2023-02-06T17:50:28.699Z,3.73
2023-02-06T17:52:56.219Z,3.10
2023-02-06T17:55:24.168Z,4.80
2023-02-06T17:57:56.771Z,3.20
2023-02-06T18:00:24.401Z,3.53
2023-02-06T18:02:52.458Z,3.37
2023-02-06T18:05:20.102Z,3.77
2023-02-06T18:07:49.583Z,4.20
2023-02-06T18:10:20.646Z,4.10
2023-02-06T18:12:48.305Z,4.23
2023-02-06T18:15:15.491Z,4.73
2023-02-06T18:17:44.514Z,3.70
2023-02-06T18:20:12.456Z,4.27
2023-02-06T18:22:41.395Z,4.00
2023-02-06T18:25:13.308Z,4.57
2023-02-06T18:27:41.235Z,5.23
2023-02-06T18:30:09.451Z,7.63
2023-02-06T18:32:38.146Z,8.40
2023-02-06T18:35:08.176Z,7.03
2023-02-06T18:37:37.859Z,7.63
2023-02-06T18:40:07.000Z,5.57
2023-02-06T18:42:54.124Z,5.80
2023-02-06T18:45:23.152Z,5.70
2023-02-06T18:47:51.893Z,4.57
2023-02-06T18:50:24.286Z,4.67
2023-02-06T18:52:51.596Z,4.80
2023-02-06T18:55:19.186Z,5.17
2023-02-06T18:57:46.933Z,5.27
2023-02-06T19:00:15.621Z,4.53
2023-02-06T19:02:42.606Z,5.73
2023-02-06T19:05:09.974Z,5.40
2023-02-06T19:07:39.940Z,5.13
2023-02-06T19:10:10.720Z,5.33
2023-02-06T19:12:38.728Z,4.30
2023-02-06T19:15:06.101Z,4.77
2023-02-06T19:17:34.009Z,4.63
2023-02-06T19:20:01.221Z,4.70
2023-02-06T19:22:28.189Z,5.03
2023-02-06T19:24:56.512Z,4.20
2023-02-06T19:27:23.736Z,4.73
2023-02-06T19:29:50.509Z,4.10
2023-02-06T19:32:17.430Z,4.50
2023-02-06T19:34:45.333Z,5.37
2023-02-06T19:37:13.007Z,5.87
2023-02-06T19:39:40.707Z,5.93
2023-02-06T19:42:09.713Z,6.50
2023-02-06T19:44:36.743Z,6.63
2023-02-06T19:47:04.726Z,6.53
2023-02-06T19:49:31.712Z,7.37
2023-02-06T19:51:58.662Z,7.17
2023-02-06T19:54:25.735Z,8.93
2023-02-06T19:56:52.682Z,9.10
2023-02-06T19:59:22.643Z,9.27
2023-02-06T20:01:55.397Z,10.13
2023-02-06T20:04:25.054Z,10.30
2023-02-06T20:06:52.468Z,10.17
2023-02-06T20:09:20.958Z,9.77
2023-02-06T20:11:49.326Z,9.87
2023-02-06T20:14:17.501Z,9.43
2023-02-06T20:16:45.112Z,8.57
2023-02-06T20:19:16.174Z,10.80
2023-02-06T20:21:45.274Z,12.20
2023-02-06T20:24:15.043Z,11.33
2023-02-06T20:26:43.000Z,12.07
2023-02-06T20:29:10.570Z,10.37
2023-02-06T20:31:37.692Z,10.97
2023-02-06T20:34:05.652Z,9.93
2023-02-06T20:36:32.418Z,9.90
2023-02-06T20:39:00.270Z,9.00
2023-02-06T20:41:30.106Z,8.70
2023-02-06T20:43:58.715Z,10.37
2023-02-06T20:46:26.631Z,8.70
2023-02-06T20:48:56.622Z,9.33
2023-02-06T20:51:24.306Z,8.33
2023-02-06T20:53:51.428Z,9.53
2023-02-06T20:56:19.466Z,9.60
2023-02-06T20:58:46.973Z,8.07
2023-02-06T21:01:22.261Z,9.03
2023-02-06T21:03:49.754Z,8.10
2023-02-06T21:06:16.556Z,8.43
2023-02-06T21:08:46.002Z,8.97
2023-02-06T21:11:13.173Z,8.00
2023-02-06T21:13:41.162Z,8.20
2023-02-06T21:16:09.477Z,7.53
2023-02-06T21:18:38.121Z,6.57
2023-02-06T21:21:13.689Z,6.93
2023-02-06T21:23:42.437Z,7.27
2023-02-06T21:26:11.605Z,7.00
2023-02-06T21:28:39.538Z,7.57
2023-02-06T21:31:09.151Z,8.07
2023-02-06T21:33:37.175Z,7.10
2023-02-06T21:36:07.069Z,7.10
2023-02-06T21:38:37.532Z,7.17
2023-02-06T21:41:12.634Z,6.40
2023-02-06T21:43:39.650Z,6.40
2023-02-06T21:46:07.003Z,7.00
2023-02-06T21:48:34.640Z,7.40
2023-02-06T21:51:14.950Z,6.53
2023-02-06T21:53:45.217Z,6.57
2023-02-06T21:59:30.648Z,8.27
2023-02-06T22:01:57.695Z,9.13
2023-02-06T22:04:29.971Z,8.47
2023-02-06T22:06:59.647Z,8.63
2023-02-06T22:12:25.495Z,7.73
2023-02-06T22:15:02.371Z,7.05
2023-02-06T22:17:32.030Z,7.03
2023-02-06T22:20:01.330Z,6.60
2023-02-06T23:39:25.366Z,8.27
2023-02-06T23:41:52.371Z,7.90
2023-02-06T23:44:19.398Z,7.77
2023-02-06T23:46:46.279Z,7.87
2023-02-06T23:49:13.068Z,7.97
2023-02-06T23:51:39.971Z,7.47
2023-02-06T23:54:07.972Z,7.07
2023-02-06T23:56:35.117Z,6.80
2023-02-06T23:59:02.729Z,7.20
